Time;durP1;ratioP1;P1;durP2;ratioP2;P2;SDS_P1;SDS_P2;PMS_P1;PMS_P2;Temp;Humidity;BMP_temperature;BMP_pressure;BME280_temperature;BME280_humidity;BME280_pressure;Samples;Min_cycle;Max_cycle;Signal;HPM_P1;HPM_P2
2022/10/28 00:00:20;;;;;;;9.13;2.20;;;15.00;99.90;;;;;;4988448;28;20218;-87
2022/10/28 00:02:52;;;;;;;9.27;2.33;;;15.00;99.90;;;;;;4975423;28;20215;-87
2022/10/28 00:05:24;;;;;;;6.23;2.40;;;14.90;99.90;;;;;;4979729;28;20242;-87
2022/10/28 00:07:55;;;;;;;4.77;2.60;;;14.90;99.90;;;;;;4977151;28;20214;-87
2022/10/28 00:10:26;;;;;;;5.20;2.00;;;15.00;99.90;;;;;;4999990;28;20202;-87
2022/10/28 00:12:57;;;;;;;4.20;2.13;;;14.90;99.90;;;;;;4994417;28;20217;-87
2022/10/28 00:15:28;;;;;;;3.53;2.23;;;14.90;99.90;;;;;;4993427;28;20210;-87
2022/10/28 00:18:01;;;;;;;5.63;2.23;;;14.90;99.90;;;;;;4976528;28;20211;-87
2022/10/28 00:20:33;;;;;;;4.43;2.17;;;14.90;99.90;;;;;;4976092;28;20205;-87
2022/10/28 00:23:03;;;;;;;3.23;1.77;;;14.90;99.90;;;;;;4975061;28;20226;-87
2022/10/28 00:25:34;;;;;;;5.07;2.43;;;14.80;99.90;;;;;;4975766;28;20683;-86
2022/10/28 00:28:05;;;;;;;6.73;2.33;;;14.80;99.90;;;;;;4975654;28;20211;-87
2022/10/28 00:30:36;;;;;;;4.17;2.07;;;14.70;99.90;;;;;;4975819;28;20225;-88
2022/10/28 00:33:09;;;;;;;5.57;2.33;;;14.70;99.90;;;;;;4975109;28;20222;-87
2022/10/28 00:35:40;;;;;;;3.20;2.07;;;14.60;99.90;;;;;;4975938;28;20226;-85
2022/10/28 00:38:10;;;;;;;5.77;2.17;;;14.60;99.90;;;;;;4976153;28;20215;-86
2022/10/28 00:40:41;;;;;;;5.47;2.17;;;14.60;99.90;;;;;;4975060;28;20203;-88
2022/10/28 00:43:13;;;;;;;4.40;2.27;;;14.60;99.90;;;;;;4974782;28;20222;-86
2022/10/28 00:45:44;;;;;;;5.03;2.30;;;14.50;99.90;;;;;;4973906;28;20241;-87
2022/10/28 00:48:17;;;;;;;4.93;1.83;;;14.50;99.90;;;;;;4975568;28;20636;-86
2022/10/28 00:50:51;;;;;;;5.47;2.30;;;14.40;99.90;;;;;;4975859;28;20218;-87
2022/10/28 00:53:25;;;;;;;7.00;2.60;;;14.40;99.90;;;;;;4975044;28;20207;-87
2022/10/28 00:55:58;;;;;;;5.13;2.07;;;14.50;99.90;;;;;;4975838;28;20233;-87
2022/10/28 00:58:30;;;;;;;7.13;2.20;;;14.40;99.90;;;;;;4975749;28;20633;-87
2022/10/28 01:01:02;;;;;;;5.63;2.50;;;14.40;99.90;;;;;;4975545;28;20210;-88
2022/10/28 01:03:37;;;;;;;4.47;2.07;;;14.30;99.90;;;;;;4975066;28;20207;-87
2022/10/28 01:06:09;;;;;;;6.23;2.20;;;14.30;99.90;;;;;;4977633;28;20214;-87
2022/10/28 01:08:40;;;;;;;3.53;2.10;;;14.40;99.90;;;;;;4990539;28;20242;-88
2022/10/28 01:11:53;;;;;;;6.17;2.30;;;14.30;99.90;;;;;;4997011;28;20568;-87
2022/10/28 01:14:41;;;;;;;3.43;2.20;;;14.30;99.90;;;;;;4990619;28;20210;-87
2022/10/28 01:17:28;;;;;;;4.00;2.73;;;14.30;99.90;;;;;;4999165;28;20272;-87
2022/10/28 01:20:24;;;;;;;4.47;2.60;;;14.40;99.90;;;;;;4989711;28;20238;-87
2022/10/28 01:23:02;;;;;;;3.10;1.67;;;14.40;99.90;;;;;;4978222;28;20206;-87
2022/10/28 01:25:59;;;;;;;8.63;2.50;;;14.40;99.90;;;;;;4990421;28;20236;-89
2022/10/28 01:29:06;;;;;;;5.27;2.33;;;14.30;99.90;;;;;;4995875;28;20214;-89
2022/10/28 01:31:44;;;;;;;4.57;1.90;;;14.30;99.90;;;;;;4989466;28;20214;-89
2022/10/28 01:34:26;;;;;;;3.57;2.20;;;14.30;99.90;;;;;;4996819;28;20205;-93
2022/10/28 01:37:04;;;;;;;3.90;2.30;;;14.40;99.90;;;;;;5006876;28;20186;-91
2022/10/28 01:39:44;;;;;;;5.47;2.23;;;14.30;99.90;;;;;;4987241;28;20242;-92
2022/10/28 01:42:26;;;;;;;3.30;1.90;;;14.30;99.90;;;;;;5011414;28;20216;-91
2022/10/28 01:45:04;;;;;;;2.93;2.23;;;14.30;99.90;;;;;;4977042;28;20822;-93
2022/10/28 01:47:40;;;;;;;3.27;2.03;;;14.30;99.90;;;;;;4979011;28;20217;-92
2022/10/28 01:50:16;;;;;;;5.33;2.50;;;14.30;99.90;;;;;;4980119;28;20217;-93
2022/10/28 01:52:51;;;;;;;3.97;2.33;;;14.30;99.90;;;;;;4996269;28;20206;-92
2022/10/28 01:55:27;;;;;;;4.03;2.00;;;14.30;99.90;;;;;;4994159;28;20659;-93
2022/10/28 01:58:02;;;;;;;3.70;2.20;;;14.30;99.90;;;;;;4994795;28;20210;-92
2022/10/28 02:00:35;;;;;;;5.50;2.40;;;14.40;99.90;;;;;;4995203;28;20206;-93
2022/10/28 02:03:12;;;;;;;3.03;2.00;;;14.40;99.90;;;;;;4994695;28;20225;-93
2022/10/28 02:05:45;;;;;;;5.93;2.30;;;14.40;99.90;;;;;;4994841;28;20244;-89
2022/10/28 02:08:49;;;;;;;4.67;2.10;;;14.30;99.90;;;;;;4983883;28;20213;-92
2022/10/28 02:11:49;;;;;;;4.40;2.27;;;14.30;99.90;;;;;;4991200;28;20213;-92
2022/10/28 02:14:34;;;;;;;4.13;2.30;;;14.30;99.90;;;;;;4989880;28;20211;-89
2022/10/28 02:17:19;;;;;;;4.30;2.27;;;14.50;99.90;;;;;;4986223;28;20218;-88
2022/10/28 02:20:01;;;;;;;4.83;2.23;;;14.40;99.90;;;;;;4993348;28;20309;-90
2022/10/28 02:22:41;;;;;;;5.00;2.00;;;14.50;99.90;;;;;;4977942;28;20925;-90
2022/10/28 02:25:17;;;;;;;3.43;1.90;;;14.40;99.90;;;;;;4975313;28;20249;-89
2022/10/28 02:27:55;;;;;;;6.63;2.80;;;14.40;99.90;;;;;;4991056;28;20285;-90
2022/10/28 02:30:33;;;;;;;5.03;2.77;;;14.50;99.90;;;;;;4983118;28;20297;-90
2022/10/28 02:33:12;;;;;;;4.53;2.33;;;14.50;99.90;;;;;;4991849;28;20591;-89
2022/10/28 02:35:51;;;;;;;5.60;2.33;;;14.40;99.90;;;;;;4995787;28;20244;-89
2022/10/28 02:38:27;;;;;;;3.77;2.20;;;14.40;99.90;;;;;;4990088;28;20217;-89
2022/10/28 02:41:03;;;;;;;4.03;2.47;;;14.40;99.90;;;;;;4990154;28;20314;-89
2022/10/28 02:43:38;;;;;;;4.07;2.43;;;14.30;99.90;;;;;;4992845;28;20206;-89
2022/10/28 02:46:10;;;;;;;3.90;2.37;;;14.30;99.90;;;;;;4999502;28;20320;-88
2022/10/28 02:48:45;;;;;;;5.67;2.43;;;14.30;99.90;;;;;;4987914;28;20219;-88
2022/10/28 02:51:22;;;;;;;6.27;2.53;;;14.30;99.90;;;;;;4997523;28;20209;-88
2022/10/28 02:54:01;;;;;;;3.53;2.30;;;14.30;99.90;;;;;;4993263;28;20213;-89
2022/10/28 02:56:36;;;;;;;4.77;2.80;;;14.30;99.90;;;;;;4996543;28;20515;-89
2022/10/28 02:59:11;;;;;;;3.70;2.60;;;14.30;99.90;;;;;;4995765;28;20206;-88
2022/10/28 03:01:42;;;;;;;4.43;2.40;;;14.30;99.90;;;;;;4985651;28;20210;-89
2022/10/28 03:04:14;;;;;;;4.63;2.43;;;14.30;99.90;;;;;;4996294;28;20569;-88
2022/10/28 03:06:48;;;;;;;5.83;2.80;;;14.30;99.90;;;;;;4992270;28;20242;-89
2022/10/28 03:09:19;;;;;;;6.60;2.57;;;14.30;99.90;;;;;;4994815;28;20573;-90
2022/10/28 03:11:50;;;;;;;5.17;2.40;;;14.30;99.90;;;;;;4995075;28;20215;-90
2022/10/28 03:14:22;;;;;;;4.33;2.77;;;14.30;99.90;;;;;;4993089;28;20209;-89
2022/10/28 03:16:53;;;;;;;3.50;2.40;;;14.30;99.90;;;;;;4996566;28;20226;-89
2022/10/28 03:19:24;;;;;;;4.43;2.60;;;14.30;99.90;;;;;;4991547;28;20198;-90
2022/10/28 03:21:57;;;;;;;4.03;2.53;;;14.30;99.90;;;;;;4988237;28;20229;-91
2022/10/28 03:24:28;;;;;;;5.27;2.53;;;14.30;99.90;;;;;;4995577;28;20568;-89
2022/10/28 03:27:03;;;;;;;4.93;2.27;;;14.30;99.90;;;;;;4992590;28;20682;-89
2022/10/28 03:29:34;;;;;;;3.20;2.50;;;14.30;99.90;;;;;;4998208;28;20221;-89
2022/10/28 03:32:05;;;;;;;4.53;2.33;;;14.20;99.90;;;;;;4999904;28;20690;-88
2022/10/28 03:34:36;;;;;;;6.27;2.67;;;14.40;99.90;;;;;;4991728;28;20277;-88
2022/10/28 03:37:09;;;;;;;7.37;2.73;;;14.30;99.90;;;;;;4990183;28;20210;-88
2022/10/28 03:39:41;;;;;;;5.73;2.60;;;14.30;99.90;;;;;;4988362;28;20222;-89
2022/10/28 03:42:12;;;;;;;6.20;2.43;;;14.30;99.90;;;;;;4986360;28;20209;-90
2022/10/28 03:44:43;;;;;;;6.83;2.83;;;14.40;99.90;;;;;;4990395;28;20587;-89
2022/10/28 03:47:14;;;;;;;4.73;2.30;;;14.40;99.90;;;;;;4993779;28;20623;-90
2022/10/28 03:49:45;;;;;;;5.53;2.97;;;14.40;99.90;;;;;;4995488;28;20658;-89
2022/10/28 03:52:18;;;;;;;5.40;2.40;;;14.40;99.90;;;;;;4984321;28;20206;-89
2022/10/28 03:54:49;;;;;;;5.63;2.90;;;14.30;99.90;;;;;;4990034;28;20549;-89
2022/10/28 03:57:20;;;;;;;4.10;2.40;;;14.20;99.90;;;;;;4993405;28;20397;-88
2022/10/28 03:59:51;;;;;;;3.90;2.90;;;14.10;99.90;;;;;;4996839;28;20230;-87
2022/10/28 04:02:25;;;;;;;6.47;2.93;;;14.10;99.90;;;;;;4999521;28;20214;-91
2022/10/28 04:04:56;;;;;;;4.83;2.83;;;14.10;99.90;;;;;;4986922;28;20211;-90
2022/10/28 04:07:29;;;;;;;5.33;3.00;;;14.10;99.90;;;;;;4991036;28;20266;-89
2022/10/28 04:10:00;;;;;;;5.63;3.03;;;14.10;99.90;;;;;;4989693;28;20213;-89
2022/10/28 04:12:31;;;;;;;4.53;2.73;;;14.00;99.90;;;;;;4991830;28;20563;-88
2022/10/28 04:15:03;;;;;;;9.73;2.77;;;14.10;99.90;;;;;;4988456;28;20601;-89
2022/10/28 04:17:36;;;;;;;5.33;2.80;;;14.10;99.90;;;;;;4996152;28;20214;-89
2022/10/28 04:20:08;;;;;;;3.63;2.40;;;14.00;99.90;;;;;;4996942;28;20597;-89
2022/10/28 04:22:44;;;;;;;4.83;2.60;;;14.00;99.90;;;;;;4996096;28;20210;-88
2022/10/28 04:25:16;;;;;;;6.50;2.80;;;14.10;99.90;;;;;;5002545;28;20202;-88
2022/10/28 04:27:47;;;;;;;4.17;2.37;;;14.00;99.90;;;;;;5001247;28;20280;-89
2022/10/28 04:30:20;;;;;;;4.60;2.67;;;13.90;99.90;;;;;;4986661;28;20199;-88
2022/10/28 04:32:51;;;;;;;3.63;2.67;;;13.80;99.90;;;;;;4981217;28;20212;-90
2022/10/28 04:35:22;;;;;;;7.00;3.07;;;13.70;99.90;;;;;;4991723;28;20261;-90
2022/10/28 04:37:57;;;;;;;6.33;3.30;;;13.50;99.90;;;;;;4997830;28;20211;-90
2022/10/28 04:40:28;;;;;;;5.57;2.87;;;13.30;99.90;;;;;;4990500;28;20686;-89
2022/10/28 04:42:59;;;;;;;4.87;3.07;;;13.00;99.90;;;;;;4993736;28;20222;-88
2022/10/28 04:45:30;;;;;;;6.80;3.20;;;12.80;99.90;;;;;;4994589;28;20229;-89
2022/10/28 04:48:01;;;;;;;8.73;3.70;;;12.60;99.90;;;;;;4990173;28;20218;-90
2022/10/28 04:50:33;;;;;;;7.17;3.63;;;12.40;99.90;;;;;;4975530;28;20211;-89
2022/10/28 04:53:06;;;;;;;4.67;3.40;;;12.30;99.90;;;;;;4975672;28;20214;-89
2022/10/28 04:55:37;;;;;;;6.17;3.80;;;12.20;99.90;;;;;;4975865;28;20262;-89
2022/10/28 04:58:08;;;;;;;7.30;3.70;;;12.10;99.90;;;;;;4991399;28;20214;-90
2022/10/28 05:00:39;;;;;;;5.77;2.90;;;12.10;99.90;;;;;;4993949;28;20211;-90
2022/10/28 05:03:10;;;;;;;5.53;3.43;;;12.20;99.90;;;;;;4987595;28;20214;-89
2022/10/28 05:05:41;;;;;;;6.80;3.20;;;12.20;99.90;;;;;;4975401;28;20203;-88
2022/10/28 05:08:16;;;;;;;8.13;3.53;;;12.20;99.90;;;;;;4985476;28;20221;-89
2022/10/28 05:10:49;;;;;;;5.03;3.03;;;12.20;99.90;;;;;;4993389;28;20268;-90
2022/10/28 05:13:21;;;;;;;4.40;3.33;;;12.10;99.90;;;;;;4993518;28;20214;-89
2022/10/28 05:15:53;;;;;;;6.23;3.67;;;12.20;99.90;;;;;;4994141;28;20293;-88
2022/10/28 05:18:26;;;;;;;7.87;4.10;;;12.10;99.90;;;;;;4990064;28;20203;-89
2022/10/28 05:20:58;;;;;;;7.17;3.70;;;12.00;99.90;;;;;;4988562;28;20664;-90
2022/10/28 05:23:31;;;;;;;8.00;3.47;;;11.90;99.90;;;;;;4985807;28;20306;-89
2022/10/28 05:26:03;;;;;;;8.93;4.77;;;11.80;99.90;;;;;;4992265;28;20210;-91
2022/10/28 05:28:34;;;;;;;6.53;4.00;;;11.70;99.90;;;;;;4993002;28;20216;-90
2022/10/28 05:31:05;;;;;;;9.53;4.37;;;11.60;99.90;;;;;;4999506;28;20221;-89
2022/10/28 05:33:36;;;;;;;9.00;4.37;;;11.60;99.90;;;;;;4992723;28;20206;-90
2022/10/28 05:36:08;;;;;;;7.73;4.87;;;11.60;99.90;;;;;;4998323;28;20289;-91
2022/10/28 05:38:44;;;;;;;9.37;4.20;;;11.50;99.90;;;;;;4996934;28;20186;-89
2022/10/28 05:41:15;;;;;;;8.17;4.63;;;11.40;99.90;;;;;;4991618;28;20210;-90
2022/10/28 05:43:46;;;;;;;7.40;4.67;;;11.40;99.90;;;;;;4987854;28;20330;-89
2022/10/28 05:46:18;;;;;;;7.23;4.10;;;11.30;99.90;;;;;;4990222;28;20268;-90
2022/10/28 05:48:48;;;;;;;9.37;5.03;;;11.30;99.90;;;;;;4982337;28;20688;-90
2022/10/28 05:51:19;;;;;;;8.67;4.83;;;11.30;99.90;;;;;;4994273;28;20421;-89
2022/10/28 05:53:53;;;;;;;5.40;4.30;;;11.30;99.90;;;;;;4992856;28;20578;-90
2022/10/28 05:56:25;;;;;;;7.47;4.93;;;11.30;99.90;;;;;;5004321;28;20209;-89
2022/10/28 05:58:56;;;;;;;7.57;5.23;;;11.30;99.90;;;;;;5007772;28;20212;-89
2022/10/28 06:01:27;;;;;;;8.47;4.97;;;11.30;99.90;;;;;;4974466;28;20204;-89
2022/10/28 06:03:58;;;;;;;7.90;4.63;;;11.20;99.90;;;;;;4991532;28;20210;-91
2022/10/28 06:06:30;;;;;;;7.40;4.73;;;11.20;99.90;;;;;;4993526;28;20238;-90
2022/10/28 06:09:03;;;;;;;6.53;4.53;;;11.20;99.90;;;;;;4979973;28;20216;-90
2022/10/28 06:11:37;;;;;;;8.23;5.10;;;11.20;99.90;;;;;;4998482;28;20199;-90
2022/10/28 06:14:09;;;;;;;6.63;4.90;;;11.10;99.90;;;;;;4997230;28;20213;-89
2022/10/28 06:16:40;;;;;;;9.17;4.70;;;11.10;99.90;;;;;;4997556;28;20209;-90
2022/10/28 06:19:11;;;;;;;6.97;4.60;;;11.10;99.90;;;;;;4998063;28;20206;-89
2022/10/28 06:21:42;;;;;;;6.43;4.60;;;11.10;99.90;;;;;;4997144;28;20217;-89
2022/10/28 06:24:18;;;;;;;7.50;4.90;;;11.20;99.90;;;;;;4991433;28;20558;-88
2022/10/28 06:26:50;;;;;;;6.10;4.03;;;11.20;99.90;;;;;;4979672;28;20234;-89
2022/10/28 06:29:21;;;;;;;5.50;4.70;;;11.20;99.90;;;;;;4982619;28;20226;-89
2022/10/28 06:31:52;;;;;;;7.17;4.77;;;11.30;99.90;;;;;;4999037;28;20209;-91
2022/10/28 06:34:23;;;;;;;6.90;4.20;;;11.20;99.90;;;;;;4996672;28;20217;-88
2022/10/28 06:36:54;;;;;;;6.57;4.47;;;11.20;99.90;;;;;;4997743;28;20314;-90
2022/10/28 06:39:28;;;;;;;9.53;4.27;;;11.20;99.90;;;;;;4984406;28;20309;-89
2022/10/28 06:42:00;;;;;;;6.03;4.00;;;11.20;99.90;;;;;;5001119;28;20213;-89
2022/10/28 06:44:31;;;;;;;6.63;3.73;;;11.30;99.90;;;;;;5005007;28;20214;-89
2022/10/28 06:47:02;;;;;;;7.07;4.57;;;11.30;99.90;;;;;;4991880;28;20694;-89
2022/10/28 06:49:33;;;;;;;4.10;3.20;;;11.30;99.90;;;;;;4986559;28;20218;-90
2022/10/28 06:52:04;;;;;;;5.80;3.40;;;11.40;99.90;;;;;;5001220;28;20207;-90
2022/10/28 06:54:38;;;;;;;6.80;4.90;;;11.50;99.90;;;;;;5017610;28;20209;-90
2022/10/28 06:57:09;;;;;;;6.83;4.83;;;11.50;99.90;;;;;;4994555;28;20221;-88
2022/10/28 06:59:41;;;;;;;8.93;4.40;;;11.50;99.90;;;;;;5014526;28;20258;-88
2022/10/28 07:02:13;;;;;;;6.70;3.20;;;11.60;99.90;;;;;;5000250;28;20214;-89
2022/10/28 07:04:44;;;;;;;3.43;3.03;;;11.60;99.90;;;;;;5003559;28;20214;-88
2022/10/28 07:07:15;;;;;;;4.00;3.10;;;11.70;99.90;;;;;;4997309;28;20230;-90
2022/10/28 07:09:49;;;;;;;5.97;3.73;;;11.70;99.90;;;;;;4978313;28;20215;-88
2022/10/28 07:12:20;;;;;;;6.17;3.67;;;11.70;99.90;;;;;;5009721;28;20209;-89
2022/10/28 07:14:51;;;;;;;4.50;3.47;;;11.70;99.90;;;;;;5016706;28;20288;-89
2022/10/28 07:17:23;;;;;;;5.53;2.97;;;11.80;99.90;;;;;;5000833;28;20202;-88
2022/10/28 07:19:54;;;;;;;3.60;2.80;;;11.70;99.90;;;;;;4996454;28;20210;-89
2022/10/28 07:22:25;;;;;;;4.03;3.53;;;11.70;99.90;;;;;;4996017;28;20212;-90
2022/10/28 07:24:58;;;;;;;4.03;3.27;;;11.80;99.90;;;;;;4995872;28;20206;-88
2022/10/28 07:27:29;;;;;;;6.40;3.70;;;11.70;99.90;;;;;;4996212;28;20248;-88
2022/10/28 07:30:00;;;;;;;5.93;3.30;;;11.70;99.90;;;;;;4996182;28;20290;-89
2022/10/28 07:32:34;;;;;;;3.47;2.57;;;11.60;99.90;;;;;;5005957;28;20569;-90
2022/10/28 07:35:05;;;;;;;6.87;3.60;;;11.60;99.90;;;;;;4996696;28;20210;-89
2022/10/28 07:37:36;;;;;;;6.27;3.50;;;11.70;99.90;;;;;;4996858;28;20238;-89
2022/10/28 07:40:11;;;;;;;3.93;2.70;;;11.70;99.90;;;;;;4996560;28;20275;-89
2022/10/28 07:42:43;;;;;;;5.07;3.13;;;11.70;99.90;;;;;;4995599;28;20214;-88
2022/10/28 07:45:14;;;;;;;6.13;3.40;;;11.80;99.90;;;;;;4996148;28;20214;-89
2022/10/28 07:47:45;;;;;;;6.57;3.30;;;11.80;99.90;;;;;;4997155;28;20225;-89
2022/10/28 07:50:17;;;;;;;5.23;2.80;;;11.80;99.90;;;;;;4985962;28;20207;-89
2022/10/28 07:52:48;;;;;;;5.30;3.27;;;11.80;99.90;;;;;;4994826;28;20285;-89
2022/10/28 07:55:23;;;;;;;8.07;3.70;;;11.80;99.90;;;;;;4996644;28;20685;-89
2022/10/28 07:57:55;;;;;;;6.80;4.00;;;11.80;99.90;;;;;;4996237;28;20233;-89
2022/10/28 08:00:26;;;;;;;3.40;3.07;;;11.70;99.90;;;;;;4994648;28;20297;-89
2022/10/28 08:02:58;;;;;;;5.00;3.30;;;11.70;99.90;;;;;;4995093;28;20655;-89
2022/10/28 08:05:29;;;;;;;5.47;3.77;;;11.70;99.90;;;;;;5007180;28;20581;-89
2022/10/28 08:08:01;;;;;;;4.37;3.33;;;11.70;99.90;;;;;;4997666;28;20262;-89
2022/10/28 08:10:34;;;;;;;5.13;3.10;;;11.70;99.90;;;;;;4995822;28;20283;-88
2022/10/28 08:13:05;;;;;;;3.70;3.30;;;11.70;99.90;;;;;;4995648;28;20221;-89
2022/10/28 08:15:36;;;;;;;5.83;3.13;;;11.70;99.90;;;;;;4999281;28;20685;-89
2022/10/28 08:18:07;;;;;;;8.07;3.83;;;11.60;99.90;;;;;;4998486;28;20224;-89
2022/10/28 08:20:38;;;;;;;4.10;3.40;;;11.60;99.90;;;;;;5000843;28;20202;-89
2022/10/28 08:23:09;;;;;;;3.43;3.10;;;11.60;99.90;;;;;;4996583;28;20589;-88
2022/10/28 08:25:52;;;;;;;5.40;3.43;;;11.60;99.90;;;;;;4996633;28;20241;-89
2022/10/28 08:28:24;;;;;;;3.40;3.10;;;11.60;99.90;;;;;;4996995;28;20687;-89
2022/10/28 08:31:00;;;;;;;4.83;3.03;;;11.60;99.90;;;;;;4995871;28;20667;-89
2022/10/28 08:33:43;;;;;;;5.33;3.23;;;11.60;99.90;;;;;;4994948;28;20220;-89
2022/10/28 08:36:16;;;;;;;5.40;3.00;;;11.60;99.90;;;;;;4996644;28;20206;-89
2022/10/28 08:38:47;;;;;;;4.20;3.17;;;11.60;99.90;;;;;;4997675;28;20206;-89
2022/10/28 08:41:30;;;;;;;5.77;3.50;;;11.60;99.90;;;;;;4996546;28;20214;-88
2022/10/28 08:44:21;;;;;;;7.13;3.70;;;11.60;99.90;;;;;;4994581;28;20221;-89
2022/10/28 08:47:07;;;;;;;3.80;3.50;;;11.60;99.90;;;;;;4994642;28;20210;-89
2022/10/28 08:49:42;;;;;;;5.27;3.40;;;11.60;99.90;;;;;;4995801;28;20234;-88
2022/10/28 08:52:27;;;;;;;3.60;3.30;;;11.60;99.90;;;;;;4997341;28;20202;-89
2022/10/28 08:55:03;;;;;;;3.77;3.47;;;11.60;99.90;;;;;;5005122;28;20214;-89
2022/10/28 08:57:39;;;;;;;3.83;3.30;;;11.50;99.90;;;;;;5006971;28;20274;-89
2022/10/28 09:00:20;;;;;;;5.73;3.83;;;11.40;99.90;;;;;;5005996;28;20220;-89
2022/10/28 09:03:02;;;;;;;4.83;3.50;;;11.40;99.90;;;;;;4985967;28;20211;-89
2022/10/28 09:05:33;;;;;;;6.03;3.53;;;11.40;99.90;;;;;;4994974;28;20217;-88
2022/10/28 09:08:04;;;;;;;4.77;4.10;;;11.40;99.90;;;;;;4995129;28;20206;-88
2022/10/28 09:11:07;;;;;;;4.93;3.73;;;11.50;99.90;;;;;;4995351;28;20202;-89
2022/10/28 09:13:55;;;;;;;4.77;3.83;;;11.50;99.90;;;;;;4993179;28;20206;-89
2022/10/28 09:16:40;;;;;;;5.70;3.60;;;11.50;99.90;;;;;;4975367;28;20222;-89
2022/10/28 09:19:19;;;;;;;5.23;3.97;;;11.50;99.90;;;;;;4977128;28;20211;-88
2022/10/28 09:21:58;;;;;;;7.63;3.43;;;11.60;99.90;;;;;;4984464;28;20297;-89
2022/10/28 09:24:44;;;;;;;4.83;3.67;;;11.60;99.90;;;;;;4990941;28;20211;-88
2022/10/28 09:27:29;;;;;;;4.70;3.13;;;11.60;99.90;;;;;;4976777;28;20217;-89
2022/10/28 09:30:15;;;;;;;5.27;3.40;;;11.60;99.90;;;;;;4976445;28;20250;-89
2022/10/28 09:32:54;;;;;;;5.17;3.60;;;11.60;99.90;;;;;;4988554;28;20232;-88
2022/10/28 09:35:28;;;;;;;4.43;3.20;;;11.70;99.90;;;;;;4993623;28;20584;-89
2022/10/28 09:38:06;;;;;;;6.77;3.10;;;11.80;99.90;;;;;;4989822;28;20215;-89
2022/10/28 09:40:41;;;;;;;6.73;3.47;;;11.90;99.90;;;;;;4996369;28;20218;-88
2022/10/28 09:43:23;;;;;;;7.83;3.90;;;12.10;99.90;;;;;;4993350;28;20215;-89
2022/10/28 09:46:03;;;;;;;8.13;3.97;;;12.00;99.90;;;;;;4996169;28;20210;-88
2022/10/28 09:48:38;;;;;;;10.07;4.37;;;12.00;99.90;;;;;;4997853;28;20567;-88
2022/10/28 09:51:23;;;;;;;8.47;4.90;;;11.80;99.90;;;;;;4996462;28;20208;-88
2022/10/28 09:53:58;;;;;;;5.27;4.10;;;11.60;99.90;;;;;;4991584;28;20574;-89
2022/10/28 09:56:30;;;;;;;7.97;4.27;;;11.50;99.90;;;;;;4975221;28;20206;-88
2022/10/28 09:59:03;;;;;;;8.63;4.50;;;11.30;99.90;;;;;;4977602;28;20203;-89
2022/10/28 10:01:39;;;;;;;7.30;4.87;;;11.20;99.90;;;;;;4994271;28;20261;-89
2022/10/28 10:04:19;;;;;;;7.87;4.47;;;11.10;99.90;;;;;;4993592;28;20214;-88
2022/10/28 10:06:54;;;;;;;5.70;4.50;;;10.90;99.90;;;;;;4993935;28;20317;-89
2022/10/28 10:09:27;;;;;;;7.30;4.77;;;10.70;99.90;;;;;;4973441;28;20246;-88
2022/10/28 10:12:03;;;;;;;7.43;4.23;;;10.60;99.90;;;;;;4972755;28;20748;-88
2022/10/28 10:14:41;;;;;;;5.53;4.20;;;10.60;99.90;;;;;;4974331;28;20233;-88
2022/10/28 10:17:17;;;;;;;8.53;5.03;;;10.50;99.90;;;;;;4974089;28;20206;-88
2022/10/28 10:20:03;;;;;;;8.13;5.23;;;10.40;99.90;;;;;;4975024;28;20214;-87
2022/10/28 10:22:36;;;;;;;8.17;4.70;;;10.40;99.90;;;;;;4974066;28;20203;-88
2022/10/28 10:25:24;;;;;;;6.40;4.53;;;10.30;99.90;;;;;;4974604;28;20221;-89
2022/10/28 10:27:58;;;;;;;7.13;4.87;;;10.30;99.90;;;;;;4973382;28;20668;-88
2022/10/28 10:30:32;;;;;;;6.80;4.03;;;10.20;99.90;;;;;;4973954;28;20227;-88
2022/10/28 10:33:08;;;;;;;6.60;4.37;;;10.30;99.90;;;;;;4974153;28;20211;-88
2022/10/28 10:35:40;;;;;;;12.13;4.83;;;10.20;99.90;;;;;;4983373;28;20202;-88
2022/10/28 10:38:17;;;;;;;6.27;4.13;;;10.20;99.90;;;;;;4994084;28;20562;-88
2022/10/28 10:40:51;;;;;;;8.80;4.83;;;10.20;99.90;;;;;;4993476;28;20221;-88
2022/10/28 10:43:25;;;;;;;21.13;4.53;;;10.20;99.90;;;;;;4992583;28;20198;-88
2022/10/28 10:46:03;;;;;;;4.93;2.70;;;10.10;99.90;;;;;;4975022;28;20254;-88
2022/10/28 10:48:37;;;;;;;2.67;1.90;;;10.10;99.90;;;;;;4979274;28;20202;-88
2022/10/28 10:51:09;;;;;;;4.10;1.97;;;9.90;99.90;;;;;;4993447;28;20594;-88
2022/10/28 10:53:41;;;;;;;6.27;2.60;;;9.90;99.90;;;;;;4993257;28;20636;-88
2022/10/28 10:56:14;;;;;;;5.70;1.60;;;9.80;99.90;;;;;;4997267;28;20652;-89
2022/10/28 10:58:51;;;;;;;5.47;1.70;;;9.70;99.90;;;;;;4996995;28;20225;-88
2022/10/28 11:01:25;;;;;;;12.27;1.20;;;9.60;99.90;;;;;;4984073;28;20582;-88
2022/10/28 11:04:03;;;;;;;3.70;1.47;;;9.50;99.90;;;;;;4979740;28;20206;-89
2022/10/28 11:06:39;;;;;;;7.90;1.60;;;9.50;99.90;;;;;;4995564;28;20241;-88
2022/10/28 11:09:20;;;;;;;4.03;1.50;;;9.40;99.90;;;;;;5000493;28;20206;-88
2022/10/28 11:11:54;;;;;;;6.97;1.20;;;9.40;99.90;;;;;;4999541;28;20289;-90
2022/10/28 11:14:28;;;;;;;1.33;0.93;;;9.40;99.90;;;;;;5000178;28;20560;-88
2022/10/28 11:17:01;;;;;;;5.07;1.40;;;9.30;99.90;;;;;;4997459;28;20203;-88
2022/10/28 11:19:35;;;;;;;3.70;0.93;;;9.30;99.90;;;;;;4985387;28;20210;-88
2022/10/28 11:22:22;;;;;;;2.47;1.00;;;9.30;99.90;;;;;;4989466;28;20568;-88
2022/10/28 11:25:20;;;;;;;4.83;0.97;;;9.20;99.90;;;;;;4996317;28;20198;-86
2022/10/28 11:28:02;;;;;;;1.10;0.83;;;9.20;99.90;;;;;;4996404;28;20576;-88
2022/10/28 11:30:46;;;;;;;1.73;0.80;;;9.20;99.90;;;;;;4996817;28;20726;-88
2022/10/28 11:33:19;;;;;;;1.93;0.80;;;9.20;99.90;;;;;;4994790;28;20280;-88
2022/10/28 11:36:12;;;;;;;1.47;0.90;;;9.20;99.90;;;;;;4995057;28;20230;-89
2022/10/28 11:39:16;;;;;;;1.67;0.90;;;9.20;99.90;;;;;;4996093;28;20214;-88
2022/10/28 11:41:55;;;;;;;1.07;0.70;;;9.10;99.90;;;;;;4996546;28;20222;-87
2022/10/28 11:44:43;;;;;;;1.70;1.13;;;9.20;99.90;;;;;;4994036;28;20247;-87
2022/10/28 11:47:52;;;;;;;2.80;0.90;;;9.10;99.90;;;;;;4977001;28;20627;-87
2022/10/28 11:50:42;;;;;;;1.20;1.10;;;9.10;99.90;;;;;;4973039;28;20238;-89
2022/10/28 11:53:28;;;;;;;2.10;0.80;;;9.10;99.90;;;;;;4989643;28;20263;-88
2022/10/28 11:56:09;;;;;;;2.37;1.20;;;9.10;99.90;;;;;;4996229;28;20635;-87
2022/10/28 11:58:47;;;;;;;1.17;0.77;;;9.10;99.90;;;;;;4981961;28;20658;-88
2022/10/28 12:01:32;;;;;;;2.00;0.80;;;9.10;99.90;;;;;;4995823;28;20678;-89
2022/10/28 12:04:30;;;;;;;1.43;1.00;;;9.20;99.90;;;;;;4995124;28;20208;-87
2022/10/28 12:07:22;;;;;;;1.90;0.80;;;9.20;99.90;;;;;;4994738;28;20210;-88
2022/10/28 12:10:34;;;;;;;1.00;0.77;;;9.20;99.90;;;;;;4996459;28;20237;-88
2022/10/28 12:13:16;;;;;;;2.03;1.10;;;9.20;99.90;;;;;;4994178;28;20206;-88
2022/10/28 12:15:56;;;;;;;3.20;1.00;;;9.10;99.90;;;;;;4995756;28;20575;-87
2022/10/28 12:18:32;;;;;;;1.33;0.80;;;9.10;99.90;;;;;;4996072;28;21029;-88
2022/10/28 12:21:12;;;;;;;1.10;1.00;;;9.20;99.90;;;;;;4996048;28;20213;-88
2022/10/28 12:23:47;;;;;;;1.30;0.90;;;9.20;99.90;;;;;;4994261;28;20300;-88
2022/10/28 12:26:22;;;;;;;1.43;0.70;;;9.20;99.90;;;;;;4993727;28;20202;-89
2022/10/28 12:28:56;;;;;;;4.00;1.30;;;9.20;99.90;;;;;;4995927;28;20304;-88
2022/10/28 12:31:30;;;;;;;1.63;0.80;;;9.20;99.90;;;;;;4981281;28;20246;-87
2022/10/28 12:34:06;;;;;;;1.43;1.00;;;9.20;99.90;;;;;;4992979;28;20360;-88
2022/10/28 12:36:43;;;;;;;2.00;0.90;;;9.20;99.90;;;;;;5008595;28;20270;-88
2022/10/28 12:39:19;;;;;;;1.20;1.00;;;9.20;99.90;;;;;;5004104;28;20210;-86
2022/10/28 12:41:59;;;;;;;2.77;0.77;;;9.20;99.90;;;;;;5005173;28;20206;-93
2022/10/28 12:44:32;;;;;;;1.73;0.87;;;9.20;99.90;;;;;;5002283;28;20206;-87
2022/10/28 12:47:23;;;;;;;0.83;0.80;;;9.20;99.90;;;;;;4996438;28;20210;-88
2022/10/28 12:50:05;;;;;;;1.37;0.83;;;9.20;99.90;;;;;;4996652;28;20593;-88
2022/10/28 12:52:45;;;;;;;0.80;0.80;;;9.20;99.90;;;;;;4995147;28;20588;-88
2022/10/28 12:55:36;;;;;;;1.30;0.80;;;9.30;99.90;;;;;;4994955;28;20827;-88
2022/10/28 12:58:18;;;;;;;1.10;0.70;;;9.20;99.90;;;;;;4975791;28;20221;-87
2022/10/28 13:00:54;;;;;;;1.27;0.70;;;9.20;99.90;;;;;;4975317;28;20211;-89
2022/10/28 13:03:26;;;;;;;2.80;1.07;;;9.30;99.90;;;;;;4991450;28;20593;-88
2022/10/28 13:06:12;;;;;;;3.80;1.10;;;9.20;99.90;;;;;;5005835;28;20214;-89
2022/10/28 13:09:02;;;;;;;1.43;0.90;;;9.20;99.90;;;;;;4994573;28;20209;-88
2022/10/28 13:12:10;;;;;;;2.43;0.93;;;9.20;99.90;;;;;;4993469;28;20230;-88
2022/10/28 13:15:10;;;;;;;1.60;0.90;;;9.20;99.90;;;;;;4994858;28;20879;-88
2022/10/28 13:17:51;;;;;;;1.47;1.03;;;9.20;99.90;;;;;;4993773;28;20210;-88
2022/10/28 13:20:32;;;;;;;1.80;1.00;;;9.20;99.90;;;;;;4990926;28;20670;-87
2022/10/28 13:23:22;;;;;;;1.63;1.23;;;9.20;99.90;;;;;;4993986;28;20206;-88
2022/10/28 13:26:04;;;;;;;4.73;1.20;;;9.20;99.90;;;;;;4992485;28;20210;-88
2022/10/28 13:28:42;;;;;;;5.07;1.27;;;9.20;99.90;;;;;;4994332;28;20210;-88
2022/10/28 13:31:16;;;;;;;1.53;1.13;;;9.20;99.90;;;;;;4993362;28;20248;-88
2022/10/28 13:33:55;;;;;;;2.00;1.20;;;9.20;99.90;;;;;;4993297;28;20202;-87